sensor_id;sensor_type;location;lat;lon;timestamp;P1;durP1;ratioP1;P2;durP2;ratioP2
7903;SDS011;3997;48.416;8.512;2023-12-20T00:00:17;0.40;;;0.40;;
7903;SDS011;3997;48.416;8.512;2023-12-20T00:02:44;0.20;;;0.20;;
7903;SDS011;3997;48.416;8.512;2023-12-20T00:05:12;0.70;;;0.60;;
7903;SDS011;3997;48.416;8.512;2023-12-20T00:07:38;0.30;;;0.30;;
7903;SDS011;3997;48.416;8.512;2023-12-20T00:10:05;0.47;;;0.40;;
7903;SDS011;3997;48.416;8.512;2023-12-20T00:12:32;0.60;;;0.60;;
7903;SDS011;3997;48.416;8.512;2023-12-20T00:14:59;0.57;;;0.50;;
7903;SDS011;3997;48.416;8.512;2023-12-20T00:17:26;1.17;;;0.50;;
7903;SDS011;3997;48.416;8.512;2023-12-20T00:19:53;0.55;;;0.55;;
7903;SDS011;3997;48.416;8.512;2023-12-20T00:22:19;0.35;;;0.35;;
7903;SDS011;3997;48.416;8.512;2023-12-20T00:24:46;1.25;;;0.63;;
7903;SDS011;3997;48.416;8.512;2023-12-20T00:27:12;0.55;;;0.55;;
7903;SDS011;3997;48.416;8.512;2023-12-20T00:29:38;0.30;;;0.30;;
7903;SDS011;3997;48.416;8.512;2023-12-20T00:32:05;1.65;;;0.43;;
7903;SDS011;3997;48.416;8.512;2023-12-20T00:34:33;0.40;;;0.40;;
7903;SDS011;3997;48.416;8.512;2023-12-20T00:37:00;0.60;;;0.50;;
7903;SDS011;3997;48.416;8.512;2023-12-20T00:39:26;0.40;;;0.40;;
7903;SDS011;3997;48.416;8.512;2023-12-20T00:41:52;0.47;;;0.30;;
7903;SDS011;3997;48.416;8.512;2023-12-20T00:44:19;0.30;;;0.30;;
7903;SDS011;3997;48.416;8.512;2023-12-20T00:46:45;0.50;;;0.40;;
7903;SDS011;3997;48.416;8.512;2023-12-20T00:49:12;0.63;;;0.40;;
7903;SDS011;3997;48.416;8.512;2023-12-20T00:51:39;0.43;;;0.30;;
7903;SDS011;3997;48.416;8.512;2023-12-20T00:54:06;0.38;;;0.38;;
7903;SDS011;3997;48.416;8.512;2023-12-20T00:56:32;0.30;;;0.30;;
7903;SDS011;3997;48.416;8.512;2023-12-20T00:58:59;0.20;;;0.20;;
7903;SDS011;3997;48.416;8.512;2023-12-20T01:01:25;0.10;;;0.10;;
7903;SDS011;3997;48.416;8.512;2023-12-20T01:03:52;0.43;;;0.38;;
7903;SDS011;3997;48.416;8.512;2023-12-20T01:06:18;1.00;;;0.30;;
7903;SDS011;3997;48.416;8.512;2023-12-20T01:08:46;1.75;;;0.40;;
7903;SDS011;3997;48.416;8.512;2023-12-20T01:11:12;0.28;;;0.13;;
7903;SDS011;3997;48.416;8.512;2023-12-20T01:13:39;0.20;;;0.20;;
7903;SDS011;3997;48.416;8.512;2023-12-20T01:16:06;0.70;;;0.10;;
7903;SDS011;3997;48.416;8.512;2023-12-20T01:18:32;0.10;;;0.10;;
7903;SDS011;3997;48.416;8.512;2023-12-20T01:21:01;0.25;;;0.20;;
7903;SDS011;3997;48.416;8.512;2023-12-20T01:23:27;0.17;;;0.17;;
7903;SDS011;3997;48.416;8.512;2023-12-20T01:25:55;0.28;;;0.20;;
7903;SDS011;3997;48.416;8.512;2023-12-20T01:28:21;0.17;;;0.17;;
7903;SDS011;3997;48.416;8.512;2023-12-20T01:30:48;1.20;;;0.40;;
7903;SDS011;3997;48.416;8.512;2023-12-20T01:33:14;0.10;;;0.10;;
7903;SDS011;3997;48.416;8.512;2023-12-20T01:35:41;0.30;;;0.13;;
7903;SDS011;3997;48.416;8.512;2023-12-20T01:38:07;0.10;;;0.10;;
7903;SDS011;3997;48.416;8.512;2023-12-20T01:40:33;0.00;;;0.00;;
7903;SDS011;3997;48.416;8.512;2023-12-20T01:43:01;0.10;;;0.10;;
7903;SDS011;3997;48.416;8.512;2023-12-20T01:45:28;0.00;;;0.00;;
7903;SDS011;3997;48.416;8.512;2023-12-20T01:47:55;0.17;;;0.17;;
7903;SDS011;3997;48.416;8.512;2023-12-20T01:50:22;0.15;;;0.15;;
7903;SDS011;3997;48.416;8.512;2023-12-20T01:52:49;0.08;;;0.08;;
7903;SDS011;3997;48.416;8.512;2023-12-20T01:55:17;0.00;;;0.00;;
7903;SDS011;3997;48.416;8.512;2023-12-20T01:57:44;0.10;;;0.00;;
7903;SDS011;3997;48.416;8.512;2023-12-20T02:00:14;0.00;;;0.00;;
7903;SDS011;3997;48.416;8.512;2023-12-20T02:02:41;0.00;;;0.00;;
7903;SDS011;3997;48.416;8.512;2023-12-20T02:05:07;0.00;;;0.00;;
7903;SDS011;3997;48.416;8.512;2023-12-20T02:07:34;0.10;;;0.10;;
7903;SDS011;3997;48.416;8.512;2023-12-20T02:10:01;1.25;;;0.00;;
7903;SDS011;3997;48.416;8.512;2023-12-20T02:12:27;0.55;;;0.10;;
7903;SDS011;3997;48.416;8.512;2023-12-20T02:14:54;0.00;;;0.00;;
7903;SDS011;3997;48.416;8.512;2023-12-20T02:17:21;0.00;;;0.00;;
7903;SDS011;3997;48.416;8.512;2023-12-20T02:19:49;0.00;;;0.00;;
7903;SDS011;3997;48.416;8.512;2023-12-20T02:22:16;0.10;;;0.10;;
7903;SDS011;3997;48.416;8.512;2023-12-20T02:24:43;0.38;;;0.00;;
7903;SDS011;3997;48.416;8.512;2023-12-20T02:27:09;0.00;;;0.00;;
7903;SDS011;3997;48.416;8.512;2023-12-20T02:29:36;0.00;;;0.00;;
7903;SDS011;3997;48.416;8.512;2023-12-20T02:32:02;0.00;;;0.00;;
7903;SDS011;3997;48.416;8.512;2023-12-20T02:34:29;0.00;;;0.00;;
7903;SDS011;3997;48.416;8.512;2023-12-20T02:36:55;0.20;;;0.10;;
7903;SDS011;3997;48.416;8.512;2023-12-20T02:39:23;0.00;;;0.00;;
7903;SDS011;3997;48.416;8.512;2023-12-20T02:41:50;0.10;;;0.10;;
7903;SDS011;3997;48.416;8.512;2023-12-20T02:44:16;0.00;;;0.00;;
7903;SDS011;3997;48.416;8.512;2023-12-20T02:46:42;0.17;;;0.10;;
7903;SDS011;3997;48.416;8.512;2023-12-20T02:49:09;0.00;;;0.00;;
7903;SDS011;3997;48.416;8.512;2023-12-20T02:51:36;0.10;;;0.00;;
7903;SDS011;3997;48.416;8.512;2023-12-20T02:54:03;0.10;;;0.00;;
7903;SDS011;3997;48.416;8.512;2023-12-20T02:56:31;1.02;;;0.00;;
7903;SDS011;3997;48.416;8.512;2023-12-20T02:58:58;0.00;;;0.00;;
7903;SDS011;3997;48.416;8.512;2023-12-20T03:01:24;0.00;;;0.00;;
7903;SDS011;3997;48.416;8.512;2023-12-20T03:03:50;0.10;;;0.10;;
7903;SDS011;3997;48.416;8.512;2023-12-20T03:06:17;0.20;;;0.20;;
7903;SDS011;3997;48.416;8.512;2023-12-20T03:08:44;0.10;;;0.10;;
7903;SDS011;3997;48.416;8.512;2023-12-20T03:11:10;0.43;;;0.20;;
7903;SDS011;3997;48.416;8.512;2023-12-20T03:13:38;0.10;;;0.10;;
7903;SDS011;3997;48.416;8.512;2023-12-20T03:16:07;0.20;;;0.20;;
7903;SDS011;3997;48.416;8.512;2023-12-20T03:18:34;0.00;;;0.00;;
7903;SDS011;3997;48.416;8.512;2023-12-20T03:21:00;0.20;;;0.20;;
7903;SDS011;3997;48.416;8.512;2023-12-20T03:23:27;0.20;;;0.20;;
7903;SDS011;3997;48.416;8.512;2023-12-20T03:25:53;0.10;;;0.10;;
7903;SDS011;3997;48.416;8.512;2023-12-20T03:28:19;0.10;;;0.10;;
7903;SDS011;3997;48.416;8.512;2023-12-20T03:30:47;0.10;;;0.10;;
7903;SDS011;3997;48.416;8.512;2023-12-20T03:33:14;0.35;;;0.00;;
7903;SDS011;3997;48.416;8.512;2023-12-20T03:35:40;0.10;;;0.10;;
7903;SDS011;3997;48.416;8.512;2023-12-20T03:38:07;0.15;;;0.15;;
7903;SDS011;3997;48.416;8.512;2023-12-20T03:40:33;0.20;;;0.10;;
7903;SDS011;3997;48.416;8.512;2023-12-20T03:43:00;0.17;;;0.17;;
7903;SDS011;3997;48.416;8.512;2023-12-20T03:45:26;0.00;;;0.00;;
7903;SDS011;3997;48.416;8.512;2023-12-20T03:47:54;0.00;;;0.00;;
7903;SDS011;3997;48.416;8.512;2023-12-20T03:50:21;0.00;;;0.00;;
7903;SDS011;3997;48.416;8.512;2023-12-20T03:52:48;1.20;;;0.70;;
7903;SDS011;3997;48.416;8.512;2023-12-20T03:55:14;0.20;;;0.20;;
7903;SDS011;3997;48.416;8.512;2023-12-20T03:57:41;0.90;;;0.90;;
7903;SDS011;3997;48.416;8.512;2023-12-20T04:00:08;0.20;;;0.20;;
7903;SDS011;3997;48.416;8.512;2023-12-20T04:02:35;0.38;;;0.10;;
7903;SDS011;3997;48.416;8.512;2023-12-20T04:05:03;0.28;;;0.10;;
7903;SDS011;3997;48.416;8.512;2023-12-20T04:07:30;0.30;;;0.30;;
7903;SDS011;3997;48.416;8.512;2023-12-20T04:09:56;0.17;;;0.10;;
7903;SDS011;3997;48.416;8.512;2023-12-20T04:12:23;0.00;;;0.00;;
7903;SDS011;3997;48.416;8.512;2023-12-20T04:14:49;0.20;;;0.20;;
7903;SDS011;3997;48.416;8.512;2023-12-20T04:17:16;0.15;;;0.15;;
7903;SDS011;3997;48.416;8.512;2023-12-20T04:19:42;0.17;;;0.17;;
7903;SDS011;3997;48.416;8.512;2023-12-20T04:22:10;0.10;;;0.10;;
7903;SDS011;3997;48.416;8.512;2023-12-20T04:24:36;0.00;;;0.00;;
7903;SDS011;3997;48.416;8.512;2023-12-20T04:27:03;0.10;;;0.10;;
7903;SDS011;3997;48.416;8.512;2023-12-20T04:29:29;0.25;;;0.25;;
7903;SDS011;3997;48.416;8.512;2023-12-20T04:31:56;0.10;;;0.10;;
7903;SDS011;3997;48.416;8.512;2023-12-20T04:34:23;0.00;;;0.00;;
7903;SDS011;3997;48.416;8.512;2023-12-20T04:36:49;0.00;;;0.00;;
7903;SDS011;3997;48.416;8.512;2023-12-20T04:39:17;0.10;;;0.10;;
7903;SDS011;3997;48.416;8.512;2023-12-20T04:41:44;0.00;;;0.00;;
7903;SDS011;3997;48.416;8.512;2023-12-20T04:44:12;0.00;;;0.00;;
7903;SDS011;3997;48.416;8.512;2023-12-20T04:46:39;0.00;;;0.00;;
7903;SDS011;3997;48.416;8.512;2023-12-20T04:49:05;0.00;;;0.00;;
7903;SDS011;3997;48.416;8.512;2023-12-20T04:51:32;0.20;;;0.20;;
7903;SDS011;3997;48.416;8.512;2023-12-20T04:53:59;0.00;;;0.00;;
7903;SDS011;3997;48.416;8.512;2023-12-20T04:56:27;0.10;;;0.10;;
7903;SDS011;3997;48.416;8.512;2023-12-20T04:58:53;0.20;;;0.20;;
7903;SDS011;3997;48.416;8.512;2023-12-20T05:01:20;0.20;;;0.20;;
7903;SDS011;3997;48.416;8.512;2023-12-20T05:03:46;1.08;;;0.03;;
7903;SDS011;3997;48.416;8.512;2023-12-20T05:06:13;0.00;;;0.00;;
7903;SDS011;3997;48.416;8.512;2023-12-20T05:08:39;0.17;;;0.10;;
7903;SDS011;3997;48.416;8.512;2023-12-20T05:11:06;0.00;;;0.00;;
7903;SDS011;3997;48.416;8.512;2023-12-20T05:13:34;0.10;;;0.10;;
7903;SDS011;3997;48.416;8.512;2023-12-20T05:16:00;0.00;;;0.00;;
7903;SDS011;3997;48.416;8.512;2023-12-20T05:18:27;0.00;;;0.00;;
7903;SDS011;3997;48.416;8.512;2023-12-20T05:20:53;0.00;;;0.00;;
7903;SDS011;3997;48.416;8.512;2023-12-20T05:23:19;0.00;;;0.00;;
7903;SDS011;3997;48.416;8.512;2023-12-20T05:25:46;0.00;;;0.00;;
7903;SDS011;3997;48.416;8.512;2023-12-20T05:28:12;0.00;;;0.00;;
7903;SDS011;3997;48.416;8.512;2023-12-20T05:30:40;0.00;;;0.00;;
7903;SDS011;3997;48.416;8.512;2023-12-20T05:33:07;0.00;;;0.00;;
7903;SDS011;3997;48.416;8.512;2023-12-20T05:35:33;0.00;;;0.00;;
7903;SDS011;3997;48.416;8.512;2023-12-20T05:38:00;0.00;;;0.00;;
7903;SDS011;3997;48.416;8.512;2023-12-20T05:40:26;0.00;;;0.00;;
7903;SDS011;3997;48.416;8.512;2023-12-20T05:42:53;0.00;;;0.00;;
7903;SDS011;3997;48.416;8.512;2023-12-20T05:45:20;0.00;;;0.00;;
7903;SDS011;3997;48.416;8.512;2023-12-20T05:47:47;0.00;;;0.00;;
7903;SDS011;3997;48.416;8.512;2023-12-20T05:50:14;0.00;;;0.00;;
7903;SDS011;3997;48.416;8.512;2023-12-20T05:52:40;0.00;;;0.00;;
7903;SDS011;3997;48.416;8.512;2023-12-20T05:55:07;0.00;;;0.00;;
7903;SDS011;3997;48.416;8.512;2023-12-20T05:57:33;0.20;;;0.00;;
7903;SDS011;3997;48.416;8.512;2023-12-20T06:00:00;0.00;;;0.00;;
7903;SDS011;3997;48.416;8.512;2023-12-20T06:02:26;0.00;;;0.00;;
7903;SDS011;3997;48.416;8.512;2023-12-20T06:04:54;0.00;;;0.00;;
7903;SDS011;3997;48.416;8.512;2023-12-20T06:07:20;0.00;;;0.00;;
7903;SDS011;3997;48.416;8.512;2023-12-20T06:09:47;0.00;;;0.00;;
7903;SDS011;3997;48.416;8.512;2023-12-20T06:12:13;0.00;;;0.00;;
7903;SDS011;3997;48.416;8.512;2023-12-20T06:14:40;0.00;;;0.00;;
7903;SDS011;3997;48.416;8.512;2023-12-20T06:17:06;0.00;;;0.00;;
7903;SDS011;3997;48.416;8.512;2023-12-20T06:19:33;0.00;;;0.00;;
7903;SDS011;3997;48.416;8.512;2023-12-20T06:22:01;0.00;;;0.00;;
7903;SDS011;3997;48.416;8.512;2023-12-20T06:24:27;0.00;;;0.00;;
7903;SDS011;3997;48.416;8.512;2023-12-20T06:26:53;0.00;;;0.00;;
7903;SDS011;3997;48.416;8.512;2023-12-20T06:29:20;0.00;;;0.00;;
7903;SDS011;3997;48.416;8.512;2023-12-20T06:31:47;0.00;;;0.00;;
7903;SDS011;3997;48.416;8.512;2023-12-20T06:34:13;0.10;;;0.10;;
7903;SDS011;3997;48.416;8.512;2023-12-20T06:36:40;0.00;;;0.00;;
7903;SDS011;3997;48.416;8.512;2023-12-20T06:39:07;0.00;;;0.00;;
7903;SDS011;3997;48.416;8.512;2023-12-20T06:41:34;0.00;;;0.00;;
7903;SDS011;3997;48.416;8.512;2023-12-20T06:44:00;0.00;;;0.00;;
7903;SDS011;3997;48.416;8.512;2023-12-20T06:46:27;0.90;;;0.10;;
7903;SDS011;3997;48.416;8.512;2023-12-20T06:48:53;0.30;;;0.30;;
7903;SDS011;3997;48.416;8.512;2023-12-20T06:51:20;0.30;;;0.30;;
7903;SDS011;3997;48.416;8.512;2023-12-20T06:53:50;0.25;;;0.22;;
7903;SDS011;3997;48.416;8.512;2023-12-20T06:56:18;0.20;;;0.20;;
7903;SDS011;3997;48.416;8.512;2023-12-20T06:58:44;0.10;;;0.10;;
7903;SDS011;3997;48.416;8.512;2023-12-20T07:01:11;0.30;;;0.30;;
7903;SDS011;3997;48.416;8.512;2023-12-20T07:03:38;0.40;;;0.40;;
7903;SDS011;3997;48.416;8.512;2023-12-20T07:06:04;0.20;;;0.20;;
7903;SDS011;3997;48.416;8.512;2023-12-20T07:08:31;0.38;;;0.17;;
7903;SDS011;3997;48.416;8.512;2023-12-20T07:11:00;0.10;;;0.10;;
7903;SDS011;3997;48.416;8.512;2023-12-20T07:13:28;0.40;;;0.40;;
7903;SDS011;3997;48.416;8.512;2023-12-20T07:15:54;0.40;;;0.40;;
7903;SDS011;3997;48.416;8.512;2023-12-20T07:18:21;0.50;;;0.50;;
7903;SDS011;3997;48.416;8.512;2023-12-20T07:20:47;0.20;;;0.20;;
7903;SDS011;3997;48.416;8.512;2023-12-20T07:23:14;0.40;;;0.40;;
7903;SDS011;3997;48.416;8.512;2023-12-20T07:25:40;0.10;;;0.10;;
7903;SDS011;3997;48.416;8.512;2023-12-20T07:28:06;0.20;;;0.20;;
7903;SDS011;3997;48.416;8.512;2023-12-20T07:30:34;0.10;;;0.10;;
7903;SDS011;3997;48.416;8.512;2023-12-20T07:33:01;1.20;;;0.90;;
7903;SDS011;3997;48.416;8.512;2023-12-20T07:35:28;0.57;;;0.57;;
7903;SDS011;3997;48.416;8.512;2023-12-20T07:37:54;1.60;;;1.50;;
7903;SDS011;3997;48.416;8.512;2023-12-20T07:40:21;0.80;;;0.80;;
7903;SDS011;3997;48.416;8.512;2023-12-20T07:42:49;1.33;;;1.23;;
7903;SDS011;3997;48.416;8.512;2023-12-20T07:45:15;1.02;;;0.90;;
7903;SDS011;3997;48.416;8.512;2023-12-20T07:47:43;0.70;;;0.70;;
7903;SDS011;3997;48.416;8.512;2023-12-20T07:50:10;0.75;;;0.75;;
7903;SDS011;3997;48.416;8.512;2023-12-20T07:52:36;0.57;;;0.50;;
7903;SDS011;3997;48.416;8.512;2023-12-20T07:55:03;1.20;;;1.10;;
7903;SDS011;3997;48.416;8.512;2023-12-20T07:57:30;0.90;;;0.90;;
7903;SDS011;3997;48.416;8.512;2023-12-20T07:59:56;0.60;;;0.60;;
7903;SDS011;3997;48.416;8.512;2023-12-20T08:02:23;0.40;;;0.40;;
7903;SDS011;3997;48.416;8.512;2023-12-20T08:04:51;0.80;;;0.80;;
7903;SDS011;3997;48.416;8.512;2023-12-20T08:07:17;2.00;;;1.08;;
7903;SDS011;3997;48.416;8.512;2023-12-20T08:09:44;0.88;;;0.88;;
7903;SDS011;3997;48.416;8.512;2023-12-20T08:12:10;0.90;;;0.90;;
7903;SDS011;3997;48.416;8.512;2023-12-20T08:14:37;2.35;;;0.50;;
7903;SDS011;3997;48.416;8.512;2023-12-20T08:17:04;0.30;;;0.30;;
7903;SDS011;3997;48.416;8.512;2023-12-20T08:19:30;0.40;;;0.40;;
7903;SDS011;3997;48.416;8.512;2023-12-20T08:21:58;0.75;;;0.75;;
7903;SDS011;3997;48.416;8.512;2023-12-20T08:24:24;0.30;;;0.30;;
7903;SDS011;3997;48.416;8.512;2023-12-20T08:26:51;3.35;;;3.05;;
7903;SDS011;3997;48.416;8.512;2023-12-20T08:29:18;0.32;;;0.32;;
7903;SDS011;3997;48.416;8.512;2023-12-20T08:31:44;0.55;;;0.32;;
7903;SDS011;3997;48.416;8.512;2023-12-20T08:34:11;0.70;;;0.65;;
7903;SDS011;3997;48.416;8.512;2023-12-20T08:36:40;1.52;;;1.52;;
7903;SDS011;3997;48.416;8.512;2023-12-20T08:39:08;0.70;;;0.70;;
7903;SDS011;3997;48.416;8.512;2023-12-20T08:41:34;0.32;;;0.30;;
7903;SDS011;3997;48.416;8.512;2023-12-20T08:44:01;0.30;;;0.20;;
7903;SDS011;3997;48.416;8.512;2023-12-20T08:46:28;0.28;;;0.28;;
7903;SDS011;3997;48.416;8.512;2023-12-20T08:48:58;0.28;;;0.20;;
7903;SDS011;3997;48.416;8.512;2023-12-20T08:51:25;0.55;;;0.20;;
7903;SDS011;3997;48.416;8.512;2023-12-20T08:53:52;1.20;;;0.70;;
7903;SDS011;3997;48.416;8.512;2023-12-20T08:56:20;0.85;;;0.30;;
7903;SDS011;3997;48.416;8.512;2023-12-20T08:58:46;0.20;;;0.20;;
7903;SDS011;3997;48.416;8.512;2023-12-20T09:01:13;1.23;;;0.30;;
7903;SDS011;3997;48.416;8.512;2023-12-20T09:03:39;0.85;;;0.28;;
7903;SDS011;3997;48.416;8.512;2023-12-20T09:06:06;0.50;;;0.50;;
7903;SDS011;3997;48.416;8.512;2023-12-20T09:08:32;0.85;;;0.70;;
7903;SDS011;3997;48.416;8.512;2023-12-20T09:10:59;1.50;;;0.68;;
7903;SDS011;3997;48.416;8.512;2023-12-20T09:13:27;0.68;;;0.50;;
7903;SDS011;3997;48.416;8.512;2023-12-20T09:15:54;1.58;;;0.77;;
7903;SDS011;3997;48.416;8.512;2023-12-20T09:18:20;0.43;;;0.43;;
7903;SDS011;3997;48.416;8.512;2023-12-20T09:20:46;2.13;;;0.90;;
7903;SDS011;3997;48.416;8.512;2023-12-20T09:23:13;0.50;;;0.35;;
7903;SDS011;3997;48.416;8.512;2023-12-20T09:25:39;0.98;;;0.68;;
7903;SDS011;3997;48.416;8.512;2023-12-20T09:28:06;1.23;;;0.70;;
7903;SDS011;3997;48.416;8.512;2023-12-20T09:30:34;2.13;;;1.02;;
7903;SDS011;3997;48.416;8.512;2023-12-20T09:33:02;3.25;;;0.82;;
7903;SDS011;3997;48.416;8.512;2023-12-20T09:35:30;3.60;;;0.80;;
7903;SDS011;3997;48.416;8.512;2023-12-20T09:37:56;1.15;;;0.77;;
7903;SDS011;3997;48.416;8.512;2023-12-20T09:40:23;1.20;;;1.00;;
7903;SDS011;3997;48.416;8.512;2023-12-20T09:42:54;2.78;;;1.10;;
7903;SDS011;3997;48.416;8.512;2023-12-20T09:45:22;1.90;;;0.63;;
7903;SDS011;3997;48.416;8.512;2023-12-20T09:47:50;2.00;;;1.13;;
7903;SDS011;3997;48.416;8.512;2023-12-20T09:50:18;1.75;;;1.00;;
7903;SDS011;3997;48.416;8.512;2023-12-20T09:52:46;2.00;;;0.98;;
7903;SDS011;3997;48.416;8.512;2023-12-20T09:55:15;2.58;;;1.20;;
7903;SDS011;3997;48.416;8.512;2023-12-20T09:57:42;1.60;;;1.08;;
7903;SDS011;3997;48.416;8.512;2023-12-20T10:00:09;1.77;;;0.95;;
7903;SDS011;3997;48.416;8.512;2023-12-20T10:02:35;4.70;;;1.77;;
7903;SDS011;3997;48.416;8.512;2023-12-20T10:05:06;4.07;;;1.73;;
7903;SDS011;3997;48.416;8.512;2023-12-20T10:07:34;3.47;;;2.00;;
7903;SDS011;3997;48.416;8.512;2023-12-20T10:10:01;3.00;;;1.48;;
7903;SDS011;3997;48.416;8.512;2023-12-20T10:12:28;2.45;;;1.60;;
7903;SDS011;3997;48.416;8.512;2023-12-20T10:14:54;2.08;;;1.30;;
7903;SDS011;3997;48.416;8.512;2023-12-20T10:17:21;3.58;;;1.48;;
7903;SDS011;3997;48.416;8.512;2023-12-20T10:19:48;1.90;;;1.30;;
7903;SDS011;3997;48.416;8.512;2023-12-20T10:22:16;3.95;;;1.40;;
7903;SDS011;3997;48.416;8.512;2023-12-20T10:24:42;2.75;;;1.45;;
7903;SDS011;3997;48.416;8.512;2023-12-20T10:27:08;1.65;;;1.30;;
7903;SDS011;3997;48.416;8.512;2023-12-20T10:29:35;2.40;;;1.42;;
7903;SDS011;3997;48.416;8.512;2023-12-20T10:34:43;1.33;;;1.23;;
7903;SDS011;3997;48.416;8.512;2023-12-20T10:37:10;3.47;;;1.23;;
7903;SDS011;3997;48.416;8.512;2023-12-20T10:39:37;1.55;;;0.98;;
7903;SDS011;3997;48.416;8.512;2023-12-20T10:42:05;0.65;;;0.63;;
7903;SDS011;3997;48.416;8.512;2023-12-20T10:44:32;3.15;;;1.20;;
7903;SDS011;3997;48.416;8.512;2023-12-20T10:46:58;1.95;;;1.08;;
7903;SDS011;3997;48.416;8.512;2023-12-20T10:49:26;2.05;;;0.90;;
7903;SDS011;3997;48.416;8.512;2023-12-20T10:51:52;2.50;;;1.13;;
7903;SDS011;3997;48.416;8.512;2023-12-20T10:54:22;1.35;;;0.90;;
7903;SDS011;3997;48.416;8.512;2023-12-20T10:56:50;2.35;;;1.45;;
7903;SDS011;3997;48.416;8.512;2023-12-20T10:59:18;2.20;;;1.08;;
7903;SDS011;3997;48.416;8.512;2023-12-20T11:01:47;0.70;;;0.50;;
7903;SDS011;3997;48.416;8.512;2023-12-20T11:04:16;1.00;;;0.70;;
7903;SDS011;3997;48.416;8.512;2023-12-20T11:06:46;1.00;;;0.90;;
7903;SDS011;3997;48.416;8.512;2023-12-20T11:09:14;3.53;;;1.33;;
7903;SDS011;3997;48.416;8.512;2023-12-20T11:11:47;2.92;;;1.40;;
7903;SDS011;3997;48.416;8.512;2023-12-20T11:14:22;9.15;;;5.28;;
7903;SDS011;3997;48.416;8.512;2023-12-20T11:16:49;4.63;;;3.35;;
7903;SDS011;3997;48.416;8.512;2023-12-20T11:19:16;4.10;;;1.83;;
7903;SDS011;3997;48.416;8.512;2023-12-20T11:21:43;6.78;;;1.30;;
7903;SDS011;3997;48.416;8.512;2023-12-20T11:24:09;2.95;;;1.17;;
7903;SDS011;3997;48.416;8.512;2023-12-20T11:26:36;2.47;;;1.08;;
7903;SDS011;3997;48.416;8.512;2023-12-20T11:31:48;2.33;;;0.77;;
7903;SDS011;3997;48.416;8.512;2023-12-20T11:34:16;2.42;;;0.98;;
7903;SDS011;3997;48.416;8.512;2023-12-20T11:36:43;6.95;;;1.15;;
7903;SDS011;3997;48.416;8.512;2023-12-20T11:39:10;5.47;;;0.93;;
7903;SDS011;3997;48.416;8.512;2023-12-20T11:41:38;1.15;;;1.00;;
7903;SDS011;3997;48.416;8.512;2023-12-20T11:44:04;0.82;;;0.80;;
7903;SDS011;3997;48.416;8.512;2023-12-20T11:46:31;4.35;;;1.27;;
7903;SDS011;3997;48.416;8.512;2023-12-20T11:48:59;3.30;;;0.90;;
7903;SDS011;3997;48.416;8.512;2023-12-20T11:51:27;1.13;;;0.70;;
7903;SDS011;3997;48.416;8.512;2023-12-20T11:53:53;1.30;;;1.00;;
7903;SDS011;3997;48.416;8.512;2023-12-20T11:56:19;3.22;;;1.10;;
7903;SDS011;3997;48.416;8.512;2023-12-20T11:58:46;1.73;;;0.80;;
7903;SDS011;3997;48.416;8.512;2023-12-20T12:01:13;2.22;;;0.82;;
7903;SDS011;3997;48.416;8.512;2023-12-20T12:03:40;1.48;;;0.80;;
7903;SDS011;3997;48.416;8.512;2023-12-20T12:06:09;1.55;;;0.80;;
7903;SDS011;3997;48.416;8.512;2023-12-20T12:08:35;1.42;;;0.82;;
7903;SDS011;3997;48.416;8.512;2023-12-20T12:11:02;1.42;;;0.77;;
7903;SDS011;3997;48.416;8.512;2023-12-20T12:13:28;4.75;;;1.33;;
7903;SDS011;3997;48.416;8.512;2023-12-20T12:15:55;2.78;;;1.10;;
7903;SDS011;3997;48.416;8.512;2023-12-20T12:18:21;1.65;;;0.95;;
7903;SDS011;3997;48.416;8.512;2023-12-20T12:20:48;2.60;;;1.23;;
7903;SDS011;3997;48.416;8.512;2023-12-20T12:23:22;2.45;;;0.98;;
7903;SDS011;3997;48.416;8.512;2023-12-20T12:25:48;1.58;;;1.10;;
7903;SDS011;3997;48.416;8.512;2023-12-20T12:28:15;2.30;;;0.75;;
7903;SDS011;3997;48.416;8.512;2023-12-20T12:30:42;4.20;;;0.82;;
7903;SDS011;3997;48.416;8.512;2023-12-20T12:33:08;3.28;;;1.13;;
7903;SDS011;3997;48.416;8.512;2023-12-20T12:35:34;2.42;;;1.05;;
7903;SDS011;3997;48.416;8.512;2023-12-20T12:38:01;2.38;;;1.05;;
7903;SDS011;3997;48.416;8.512;2023-12-20T12:40:29;1.83;;;0.70;;
7903;SDS011;3997;48.416;8.512;2023-12-20T12:43:00;1.23;;;0.85;;
7903;SDS011;3997;48.416;8.512;2023-12-20T12:45:27;3.08;;;0.88;;
7903;SDS011;3997;48.416;8.512;2023-12-20T12:47:53;1.67;;;1.00;;
7903;SDS011;3997;48.416;8.512;2023-12-20T12:50:20;4.30;;;0.80;;
7903;SDS011;3997;48.416;8.512;2023-12-20T12:52:46;2.05;;;0.90;;
7903;SDS011;3997;48.416;8.512;2023-12-20T12:55:13;2.08;;;0.60;;
7903;SDS011;3997;48.416;8.512;2023-12-20T12:57:41;4.00;;;0.90;;
7903;SDS011;3997;48.416;8.512;2023-12-20T13:00:08;4.20;;;0.98;;
7903;SDS011;3997;48.416;8.512;2023-12-20T13:02:34;3.65;;;0.73;;
7903;SDS011;3997;48.416;8.512;2023-12-20T13:05:03;4.97;;;0.77;;
7903;SDS011;3997;48.416;8.512;2023-12-20T13:07:29;1.60;;;0.82;;
7903;SDS011;3997;48.416;8.512;2023-12-20T13:09:56;1.58;;;0.80;;
7903;SDS011;3997;48.416;8.512;2023-12-20T13:12:22;1.92;;;0.77;;
7903;SDS011;3997;48.416;8.512;2023-12-20T13:14:50;1.48;;;0.65;;
7903;SDS011;3997;48.416;8.512;2023-12-20T13:17:16;3.35;;;1.08;;
7903;SDS011;3997;48.416;8.512;2023-12-20T13:19:43;2.42;;;0.88;;
7903;SDS011;3997;48.416;8.512;2023-12-20T13:22:09;1.80;;;0.93;;
7903;SDS011;3997;48.416;8.512;2023-12-20T13:24:36;2.30;;;0.90;;
7903;SDS011;3997;48.416;8.512;2023-12-20T13:27:02;2.55;;;1.08;;
7903;SDS011;3997;48.416;8.512;2023-12-20T13:29:29;5.28;;;1.10;;
7903;SDS011;3997;48.416;8.512;2023-12-20T13:31:57;3.25;;;1.00;;
7903;SDS011;3997;48.416;8.512;2023-12-20T13:34:23;3.13;;;0.90;;
7903;SDS011;3997;48.416;8.512;2023-12-20T13:36:50;4.20;;;0.85;;
7903;SDS011;3997;48.416;8.512;2023-12-20T13:39:16;4.75;;;0.95;;
7903;SDS011;3997;48.416;8.512;2023-12-20T13:41:43;2.45;;;0.70;;
7903;SDS011;3997;48.416;8.512;2023-12-20T13:44:09;2.63;;;1.00;;
7903;SDS011;3997;48.416;8.512;2023-12-20T13:46:37;4.82;;;0.77;;
7903;SDS011;3997;48.416;8.512;2023-12-20T13:49:05;2.47;;;0.75;;
7903;SDS011;3997;48.416;8.512;2023-12-20T13:51:31;8.52;;;2.78;;
7903;SDS011;3997;48.416;8.512;2023-12-20T13:53:58;3.25;;;0.90;;
7903;SDS011;3997;48.416;8.512;2023-12-20T13:56:25;5.28;;;1.13;;
7903;SDS011;3997;48.416;8.512;2023-12-20T13:58:51;4.40;;;1.00;;
7903;SDS011;3997;48.416;8.512;2023-12-20T14:01:18;3.05;;;0.82;;
7903;SDS011;3997;48.416;8.512;2023-12-20T14:03:45;4.75;;;1.40;;
7903;SDS011;3997;48.416;8.512;2023-12-20T14:06:13;1.40;;;1.10;;
7903;SDS011;3997;48.416;8.512;2023-12-20T14:08:40;2.78;;;0.73;;
7903;SDS011;3997;48.416;8.512;2023-12-20T14:11:07;2.88;;;1.00;;
7903;SDS011;3997;48.416;8.512;2023-12-20T14:13:34;4.75;;;1.15;;
7903;SDS011;3997;48.416;8.512;2023-12-20T14:16:00;1.90;;;0.88;;
7903;SDS011;3997;48.416;8.512;2023-12-20T14:18:28;3.25;;;1.40;;
7903;SDS011;3997;48.416;8.512;2023-12-20T14:20:55;2.90;;;1.55;;
7903;SDS011;3997;48.416;8.512;2023-12-20T14:23:26;5.30;;;2.55;;
7903;SDS011;3997;48.416;8.512;2023-12-20T14:25:52;2.85;;;1.45;;
7903;SDS011;3997;48.416;8.512;2023-12-20T14:28:19;2.08;;;1.10;;
7903;SDS011;3997;48.416;8.512;2023-12-20T14:30:46;5.35;;;1.20;;
7903;SDS011;3997;48.416;8.512;2023-12-20T14:33:14;2.47;;;0.80;;
7903;SDS011;3997;48.416;8.512;2023-12-20T14:35:40;3.00;;;0.98;;
7903;SDS011;3997;48.416;8.512;2023-12-20T14:38:07;3.53;;;1.60;;
7903;SDS011;3997;48.416;8.512;2023-12-20T14:40:35;6.00;;;4.25;;
7903;SDS011;3997;48.416;8.512;2023-12-20T14:43:02;4.22;;;2.55;;
7903;SDS011;3997;48.416;8.512;2023-12-20T14:45:29;2.72;;;1.52;;
7903;SDS011;3997;48.416;8.512;2023-12-20T14:47:55;2.17;;;1.20;;
7903;SDS011;3997;48.416;8.512;2023-12-20T14:50:22;5.85;;;4.25;;
7903;SDS011;3997;48.416;8.512;2023-12-20T14:52:48;4.88;;;0.95;;
7903;SDS011;3997;48.416;8.512;2023-12-20T14:55:15;2.55;;;1.00;;
7903;SDS011;3997;48.416;8.512;2023-12-20T14:57:43;1.70;;;0.80;;
7903;SDS011;3997;48.416;8.512;2023-12-20T15:00:10;4.47;;;1.00;;
7903;SDS011;3997;48.416;8.512;2023-12-20T15:02:40;2.78;;;1.08;;
7903;SDS011;3997;48.416;8.512;2023-12-20T15:05:06;1.52;;;0.68;;
7903;SDS011;3997;48.416;8.512;2023-12-20T15:07:33;1.50;;;0.73;;
7903;SDS011;3997;48.416;8.512;2023-12-20T15:09:59;2.85;;;0.80;;
7903;SDS011;3997;48.416;8.512;2023-12-20T15:12:26;2.83;;;1.10;;
7903;SDS011;3997;48.416;8.512;2023-12-20T15:14:54;3.17;;;1.77;;
7903;SDS011;3997;48.416;8.512;2023-12-20T15:17:20;9.88;;;5.10;;